createdAt,value
2017-11-28T00:01:54.977Z,18.20
2017-11-28T00:04:22.822Z,18.20
2017-11-28T00:06:50.697Z,18.20
2017-11-28T00:09:18.481Z,18.20
2017-11-28T00:11:46.338Z,18.20
2017-11-28T00:14:14.203Z,18.20
2017-11-28T00:16:42.052Z,18.10
2017-11-28T00:19:10.760Z,18.10
2017-11-28T00:21:38.680Z,18.10
2017-11-28T00:24:06.618Z,18.10
2017-11-28T00:26:34.487Z,18.10
2017-11-28T00:29:02.327Z,18.10
2017-11-28T00:31:30.211Z,18.00
2017-11-28T00:33:58.076Z,18.00
2017-11-28T00:36:25.967Z,18.00
2017-11-28T00:38:53.905Z,18.00
2017-11-28T00:41:21.835Z,18.00
2017-11-28T00:43:50.515Z,17.90
2017-11-28T00:46:19.237Z,17.90
2017-11-28T00:48:47.368Z,17.90
2017-11-28T00:51:15.346Z,17.90
2017-11-28T00:53:44.083Z,17.90
2017-11-28T00:56:12.038Z,17.90
2017-11-28T00:58:39.907Z,17.90
2017-11-28T01:01:07.781Z,17.90
2017-11-28T01:03:35.628Z,17.90
2017-11-28T01:06:03.512Z,17.80
2017-11-28T01:08:31.357Z,17.80
2017-11-28T01:10:59.360Z,17.80
2017-11-28T01:13:27.213Z,17.80
2017-11-28T01:15:55.102Z,17.80
2017-11-28T01:18:22.985Z,17.70
2017-11-28T01:20:50.888Z,17.70
2017-11-28T01:23:18.832Z,17.70
2017-11-28T01:25:47.517Z,17.70
2017-11-28T01:28:16.487Z,17.60
2017-11-28T01:30:44.465Z,17.60
2017-11-28T01:33:12.431Z,17.60
2017-11-28T01:35:40.346Z,17.60
2017-11-28T01:38:08.400Z,17.60
2017-11-28T01:40:37.054Z,17.50
2017-11-28T01:43:04.954Z,17.50
2017-11-28T01:45:33.632Z,17.50
2017-11-28T01:48:02.296Z,17.50
2017-11-28T01:50:30.204Z,17.50
2017-11-28T01:52:58.426Z,17.50
2017-11-28T01:55:26.383Z,17.50
2017-11-28T01:57:54.335Z,17.40
2017-11-28T02:00:22.148Z,17.40
2017-11-28T02:02:50.027Z,17.40
2017-11-28T02:05:18.745Z,17.40
2017-11-28T02:07:46.740Z,17.40
2017-11-28T02:10:14.706Z,17.40
2017-11-28T02:12:42.611Z,17.40
2017-11-28T02:15:11.271Z,17.30
2017-11-28T02:17:39.216Z,17.30
2017-11-28T02:20:07.172Z,17.30
2017-11-28T02:22:35.129Z,17.30
2017-11-28T02:25:03.129Z,17.30
2017-11-28T02:27:31.068Z,17.30
2017-11-28T02:29:59.047Z,17.30
2017-11-28T02:32:27.144Z,17.30
2017-11-28T02:34:54.978Z,17.20
2017-11-28T02:37:23.011Z,17.20
2017-11-28T02:39:50.948Z,17.20
2017-11-28T02:42:18.897Z,17.20
2017-11-28T02:44:46.775Z,17.20
2017-11-28T02:47:15.068Z,17.20
2017-11-28T02:50:00.780Z,17.20
2017-11-28T02:52:29.456Z,17.10
2017-11-28T02:55:15.593Z,17.10
2017-11-28T02:57:43.668Z,17.10
2017-11-28T03:00:11.548Z,17.10
2017-11-28T03:02:39.439Z,17.10
2017-11-28T03:05:07.344Z,17.10
2017-11-28T03:07:38.945Z,17.10
2017-11-28T03:10:10.601Z,17.00
2017-11-28T03:12:38.531Z,17.00
2017-11-28T03:15:21.312Z,17.00
2017-11-28T03:17:49.376Z,16.90
2017-11-28T03:20:23.265Z,16.90
2017-11-28T03:26:00.547Z,16.80
2017-11-28T03:58:03.096Z,16.70
2017-11-28T04:00:31.048Z,16.60
2017-11-28T04:02:59.054Z,16.70
2017-11-28T04:05:27.509Z,16.70
2017-11-28T04:21:08.218Z,16.60
2017-11-28T04:23:36.146Z,16.60
2017-11-28T04:26:04.150Z,16.70
2017-11-28T04:28:32.065Z,16.60
2017-11-28T04:30:59.974Z,16.70
2017-11-28T04:37:37.046Z,16.60
2017-11-28T04:40:04.985Z,16.60
2017-11-28T04:42:32.969Z,16.60
2017-11-28T04:45:00.869Z,16.60
2017-11-28T04:47:29.002Z,16.60
2017-11-28T04:49:57.038Z,16.60
2017-11-28T04:52:25.075Z,16.60
2017-11-28T05:18:03.137Z,16.60
2017-11-28T05:20:31.135Z,16.60
2017-11-28T05:22:59.119Z,16.60
2017-11-28T05:25:27.077Z,16.60
2017-11-28T05:27:54.965Z,16.70
2017-11-28T05:30:22.855Z,16.60
2017-11-28T05:32:51.580Z,16.60
2017-11-28T05:35:19.569Z,16.60
2017-11-28T05:37:47.502Z,16.70
2017-11-28T05:40:15.492Z,16.70
2017-11-28T05:42:43.545Z,16.70
2017-11-28T05:45:25.229Z,16.70
2017-11-28T05:47:54.730Z,16.60
2017-11-28T05:57:11.346Z,16.60
2017-11-28T05:59:39.278Z,16.70
2017-11-28T06:02:07.247Z,16.70
2017-11-28T06:04:35.156Z,16.70
2017-11-28T06:10:29.239Z,16.70
2017-11-28T06:12:58.113Z,16.70
2017-11-28T06:22:15.551Z,16.60
2017-11-28T06:24:43.534Z,16.70
2017-11-28T06:34:01.400Z,16.70
2017-11-28T06:36:29.292Z,16.70
2017-11-28T06:38:57.433Z,16.70
2017-11-28T06:41:26.247Z,16.70
2017-11-28T06:47:11.365Z,16.70
2017-11-28T06:49:39.407Z,16.70
2017-11-28T06:56:10.202Z,16.70
2017-11-28T06:58:38.946Z,16.70
2017-11-28T07:01:06.900Z,16.70
2017-11-28T07:03:35.162Z,16.70
2017-11-28T07:06:03.089Z,16.70
2017-11-28T07:08:31.766Z,16.70
2017-11-28T07:10:59.689Z,16.70
2017-11-28T07:13:27.644Z,16.70
2017-11-28T07:15:55.607Z,16.70
2017-11-28T07:18:23.657Z,16.70
2017-11-28T07:20:52.337Z,16.60
2017-11-28T07:23:20.986Z,16.60
2017-11-28T07:25:48.910Z,16.60
2017-11-28T07:28:17.587Z,16.60
2017-11-28T07:30:46.253Z,16.60
2017-11-28T07:33:14.752Z,16.60
2017-11-28T07:35:42.661Z,16.60
2017-11-28T07:38:10.565Z,16.60
2017-11-28T07:40:38.457Z,16.60
2017-11-28T07:43:07.108Z,16.60
2017-11-28T07:45:38.140Z,16.60
2017-11-28T07:48:06.125Z,16.60
2017-11-28T07:50:34.071Z,16.60
2017-11-28T07:53:02.053Z,16.70
2017-11-28T07:55:29.977Z,16.70
2017-11-28T07:57:57.929Z,16.70
2017-11-28T08:00:25.820Z,16.70
2017-11-28T08:02:53.746Z,16.70
2017-11-28T08:05:22.420Z,16.70
2017-11-28T08:07:50.340Z,16.70
2017-11-28T08:10:18.220Z,16.80
2017-11-28T08:12:46.106Z,16.80
2017-11-28T08:15:13.959Z,16.80
2017-11-28T08:17:41.872Z,16.80
2017-11-28T08:20:10.545Z,16.80
2017-11-28T08:22:39.277Z,16.90
2017-11-28T08:25:07.286Z,16.90
2017-11-28T08:27:35.255Z,16.90
2017-11-28T08:30:03.806Z,17.00
2017-11-28T08:32:31.753Z,17.10
2017-11-28T08:34:59.709Z,17.10
2017-11-28T08:37:28.414Z,17.10
2017-11-28T08:39:56.433Z,17.10
2017-11-28T08:42:24.422Z,17.30
2017-11-28T08:44:53.326Z,17.30
2017-11-28T08:47:21.305Z,17.30
2017-11-28T08:49:49.277Z,17.40
2017-11-28T08:52:17.307Z,17.40
2017-11-28T08:54:45.993Z,17.40
2017-11-28T08:57:14.222Z,17.40
2017-11-28T08:59:42.131Z,17.40
2017-11-28T09:02:10.174Z,17.50
2017-11-28T09:04:38.092Z,17.50
2017-11-28T09:07:07.161Z,17.40
2017-11-28T09:09:35.067Z,17.40
2017-11-28T09:12:03.941Z,17.30
2017-11-28T09:14:31.833Z,17.30
2017-11-28T09:16:59.725Z,17.30
2017-11-28T09:19:27.643Z,17.30
2017-11-28T09:21:56.291Z,17.20
2017-11-28T09:24:24.203Z,17.20
2017-11-28T09:26:52.888Z,17.30
2017-11-28T09:29:21.557Z,17.40
2017-11-28T09:31:50.539Z,17.40
2017-11-28T09:34:19.256Z,17.40
2017-11-28T09:36:47.940Z,17.40
2017-11-28T09:39:16.611Z,17.40
2017-11-28T09:41:45.268Z,17.40
2017-11-28T09:44:13.158Z,17.40
2017-11-28T09:46:41.807Z,17.30
2017-11-28T09:49:09.732Z,17.30
2017-11-28T09:51:50.114Z,17.20
2017-11-28T10:00:55.589Z,17.30
2017-11-28T10:03:23.589Z,17.30
2017-11-28T10:05:51.465Z,17.30
2017-11-28T10:08:20.231Z,17.30
2017-11-28T10:10:48.151Z,17.30
2017-11-28T10:13:16.871Z,17.20
2017-11-28T10:15:45.071Z,17.20
2017-11-28T10:18:13.393Z,17.30
2017-11-28T10:20:42.897Z,17.30
2017-11-28T10:23:11.769Z,17.40
2017-11-28T10:25:39.673Z,17.40
2017-11-28T10:28:07.593Z,17.30
2017-11-28T10:30:35.536Z,17.30
2017-11-28T10:33:03.541Z,17.30
2017-11-28T10:35:31.515Z,17.30
2017-11-28T10:37:59.458Z,17.40
2017-11-28T10:40:27.522Z,17.40
2017-11-28T10:42:55.461Z,17.50
2017-11-28T10:45:23.444Z,17.50
2017-11-28T10:47:52.399Z,17.40
2017-11-28T10:50:21.336Z,17.40
2017-11-28T10:52:49.309Z,17.40
2017-11-28T10:55:17.301Z,17.50
2017-11-28T10:57:45.401Z,17.50
2017-11-28T11:00:13.476Z,17.40
2017-11-28T11:02:41.418Z,17.50
2017-11-28T11:05:09.453Z,17.50
2017-11-28T11:07:37.321Z,17.50
2017-11-28T11:10:05.472Z,17.50
2017-11-28T11:12:33.884Z,17.60
2017-11-28T11:15:02.301Z,17.60
2017-11-28T11:17:31.042Z,17.60
2017-11-28T11:19:58.967Z,17.50
2017-11-28T11:22:27.857Z,17.60
2017-11-28T11:24:55.877Z,17.60
2017-11-28T11:27:23.872Z,17.60
2017-11-28T11:29:52.605Z,17.70
2017-11-28T11:32:20.513Z,17.70
2017-11-28T11:34:48.407Z,17.70
2017-11-28T11:37:17.131Z,17.80
2017-11-28T11:39:45.174Z,17.80
2017-11-28T11:42:13.842Z,17.80
2017-11-28T11:44:42.546Z,17.80
2017-11-28T11:47:11.194Z,17.90
2017-11-28T11:49:39.108Z,17.90
2017-11-28T11:52:07.036Z,17.90
2017-11-28T11:54:35.032Z,17.80
2017-11-28T11:57:02.972Z,17.90
2017-11-28T11:59:30.862Z,18.00
2017-11-28T12:01:59.601Z,18.00
2017-11-28T12:04:27.469Z,18.00
2017-11-28T12:06:55.442Z,18.00
2017-11-28T12:09:23.510Z,18.00
2017-11-28T12:11:51.475Z,18.00
2017-11-28T12:14:20.670Z,18.10
2017-11-28T12:16:48.654Z,18.00
2017-11-28T12:19:16.673Z,18.10
2017-11-28T12:21:44.575Z,18.00
2017-11-28T12:24:12.516Z,18.00
2017-11-28T12:26:40.542Z,17.90
2017-11-28T12:29:08.720Z,17.90
2017-11-28T12:31:37.482Z,17.90
2017-11-28T12:34:07.779Z,17.80
2017-11-28T12:36:35.674Z,17.80
2017-11-28T12:39:03.621Z,17.80
2017-11-28T12:41:31.574Z,17.80
2017-11-28T12:43:59.478Z,17.80
2017-11-28T12:46:27.415Z,17.80
2017-11-28T12:48:55.337Z,17.70
2017-11-28T12:51:23.279Z,17.70
2017-11-28T12:53:51.247Z,17.70
2017-11-28T12:56:19.179Z,17.80
2017-11-28T12:58:47.160Z,17.70
2017-11-28T13:01:15.312Z,17.70
2017-11-28T13:03:43.178Z,17.70
2017-11-28T13:06:11.061Z,17.70
2017-11-28T13:08:39.073Z,17.80
2017-11-28T13:11:07.760Z,17.90
2017-11-28T13:13:35.640Z,17.90
2017-11-28T13:16:03.586Z,17.90
2017-11-28T13:18:31.563Z,18.00
2017-11-28T13:20:59.691Z,18.00
2017-11-28T13:23:27.768Z,18.00
2017-11-28T13:25:55.701Z,18.00
2017-11-28T13:28:24.387Z,18.00
2017-11-28T13:30:53.039Z,18.00
2017-11-28T13:33:21.047Z,18.00
2017-11-28T13:35:50.314Z,17.90
2017-11-28T13:38:18.314Z,17.90
2017-11-28T13:40:47.153Z,17.90
2017-11-28T13:43:16.301Z,17.90
2017-11-28T13:45:44.987Z,17.90
2017-11-28T13:48:13.635Z,17.90
2017-11-28T13:50:41.589Z,17.80
2017-11-28T13:53:09.453Z,17.90
2017-11-28T13:55:37.382Z,17.80
2017-11-28T13:58:05.254Z,17.80
2017-11-28T14:00:33.139Z,17.80
2017-11-28T14:03:01.055Z,17.80
2017-11-28T14:05:29.769Z,17.80
2017-11-28T14:07:58.385Z,17.90
2017-11-28T14:10:26.232Z,17.80
2017-11-28T14:12:54.126Z,17.80
2017-11-28T14:15:21.998Z,17.80
2017-11-28T14:17:49.956Z,17.90
2017-11-28T14:20:20.681Z,17.90
2017-11-28T14:23:06.317Z,17.80
2017-11-28T14:25:35.591Z,17.80
2017-11-28T14:28:07.089Z,17.80
2017-11-28T14:31:00.820Z,17.80
2017-11-28T14:33:29.322Z,17.80
2017-11-28T14:39:07.939Z,17.80
2017-11-28T14:41:36.808Z,17.80
2017-11-28T14:44:16.462Z,17.90
2017-11-28T14:46:44.481Z,17.90
2017-11-28T14:49:13.067Z,17.90
2017-11-28T14:51:46.545Z,17.90
2017-11-28T14:54:21.225Z,17.90
2017-11-28T14:57:04.069Z,17.90
2017-11-28T14:59:37.606Z,17.90
2017-11-28T15:02:11.101Z,17.90
2017-11-28T15:04:44.617Z,17.80
2017-11-28T15:07:29.935Z,17.80
2017-11-28T15:10:03.469Z,17.80
2017-11-28T15:12:36.844Z,17.80
2017-11-28T15:15:10.874Z,17.80
2017-11-28T15:17:56.471Z,17.80
2017-11-28T15:23:33.286Z,17.80
2017-11-28T15:26:04.777Z,17.70
2017-11-28T15:28:48.264Z,17.70
2017-11-28T15:31:16.279Z,17.80
2017-11-28T15:33:44.256Z,17.80
2017-11-28T15:36:12.345Z,17.80
2017-11-28T15:38:40.345Z,17.80
2017-11-28T15:41:08.255Z,17.80
2017-11-28T15:43:36.324Z,17.80
2017-11-28T15:46:04.228Z,17.70
2017-11-28T15:48:32.128Z,17.70
2017-11-28T15:51:00.031Z,17.80
2017-11-28T15:53:27.922Z,17.70
2017-11-28T15:55:55.970Z,17.70
2017-11-28T15:58:23.877Z,17.80
2017-11-28T16:00:51.798Z,17.80
2017-11-28T16:03:19.682Z,17.80
2017-11-28T16:05:48.336Z,17.90
2017-11-28T16:08:21.661Z,17.90
2017-11-28T16:10:50.420Z,18.10
2017-11-28T16:13:21.124Z,18.00
2017-11-28T16:15:49.152Z,18.00
2017-11-28T16:18:18.182Z,17.90
2017-11-28T16:20:46.156Z,17.90
2017-11-28T16:23:16.224Z,17.90
2017-11-28T16:25:46.303Z,17.90
2017-11-28T16:28:14.335Z,17.90
2017-11-28T16:30:42.273Z,17.90
2017-11-28T16:33:11.361Z,17.80
2017-11-28T16:35:39.319Z,17.70
2017-11-28T16:38:07.243Z,17.70
2017-11-28T16:40:35.213Z,17.60
2017-11-28T16:43:03.083Z,17.70
2017-11-28T16:45:31.054Z,17.70
2017-11-28T16:47:59.104Z,17.70
2017-11-28T16:50:27.006Z,17.60
2017-11-28T16:52:54.900Z,17.60
2017-11-28T16:55:22.794Z,17.70
2017-11-28T16:57:51.532Z,17.70
2017-11-28T17:00:19.550Z,17.70
2017-11-28T17:02:48.303Z,17.70
2017-11-28T17:05:16.331Z,17.70
2017-11-28T17:07:45.245Z,17.70
2017-11-28T17:10:13.116Z,17.70
2017-11-28T17:12:41.121Z,17.70
2017-11-28T17:15:09.073Z,17.70
2017-11-28T17:17:37.055Z,17.70
2017-11-28T17:20:05.185Z,17.70
2017-11-28T17:22:33.177Z,17.70
2017-11-28T17:25:01.174Z,17.70
2017-11-28T17:27:29.928Z,17.70
2017-11-28T17:29:57.825Z,17.70
2017-11-28T17:32:26.460Z,17.70
2017-11-28T17:34:54.638Z,17.70
2017-11-28T17:37:22.586Z,17.70
2017-11-28T17:39:50.759Z,17.70
2017-11-28T17:42:18.710Z,17.70
2017-11-28T17:44:46.645Z,17.60
2017-11-28T17:47:14.569Z,17.60
2017-11-28T17:49:42.646Z,17.60
2017-11-28T17:52:11.409Z,17.60
2017-11-28T17:54:40.150Z,17.70
2017-11-28T17:57:08.154Z,17.60
2017-11-28T17:59:36.886Z,17.60
2017-11-28T18:02:05.111Z,17.60
2017-11-28T18:04:33.889Z,17.60
2017-11-28T18:07:02.558Z,17.60
2017-11-28T18:09:30.485Z,17.60
2017-11-28T18:11:59.330Z,17.60
2017-11-28T18:14:27.301Z,17.60
2017-11-28T18:16:55.234Z,17.60
2017-11-28T18:19:23.103Z,17.60
2017-11-28T18:21:54.459Z,17.60
2017-11-28T18:24:22.965Z,17.60
2017-11-28T18:26:52.681Z,17.60
2017-11-28T18:29:21.689Z,17.60
2017-11-28T18:31:50.720Z,17.60
2017-11-28T18:34:18.664Z,17.60
2017-11-28T18:36:46.654Z,17.60
2017-11-28T18:39:14.542Z,17.60
2017-11-28T18:41:42.790Z,17.60
2017-11-28T18:44:10.808Z,17.60
2017-11-28T18:46:39.495Z,17.60
2017-11-28T18:49:07.439Z,17.50
2017-11-28T18:51:35.348Z,17.50
2017-11-28T18:54:03.975Z,17.50
2017-11-28T18:56:32.060Z,17.50
2017-11-28T18:58:59.932Z,17.50
2017-11-28T19:01:28.173Z,17.50
2017-11-28T19:03:56.099Z,17.50
2017-11-28T19:06:23.941Z,17.50
2017-11-28T19:08:51.872Z,17.50
2017-11-28T19:11:19.670Z,17.50
2017-11-28T19:13:47.507Z,17.50
2017-11-28T19:16:15.521Z,17.50
2017-11-28T19:18:43.362Z,17.50
2017-11-28T19:21:11.401Z,17.50
2017-11-28T19:23:39.249Z,17.50
2017-11-28T19:26:07.858Z,17.50
2017-11-28T19:28:36.060Z,17.50
2017-11-28T19:31:03.950Z,17.50
2017-11-28T19:33:32.050Z,17.50
2017-11-28T19:36:00.746Z,17.50
2017-11-28T19:38:29.470Z,17.50
2017-11-28T19:40:57.327Z,17.50
2017-11-28T19:43:25.187Z,17.50
2017-11-28T19:45:53.072Z,17.50
2017-11-28T19:48:21.051Z,17.50
2017-11-28T19:50:48.968Z,17.50
2017-11-28T19:53:17.657Z,17.50
2017-11-28T19:55:45.725Z,17.50
2017-11-28T19:58:14.034Z,17.50
2017-11-28T20:00:41.903Z,17.50
2017-11-28T20:03:09.765Z,17.50
2017-11-28T20:05:37.696Z,17.50
2017-11-28T20:08:06.310Z,17.50
2017-11-28T20:10:34.204Z,17.50
2017-11-28T20:13:02.041Z,17.50
2017-11-28T20:15:29.979Z,17.50
2017-11-28T20:17:58.688Z,17.50
2017-11-28T20:20:26.730Z,17.50
2017-11-28T20:22:55.006Z,17.50
2017-11-28T20:25:23.653Z,17.40
2017-11-28T20:27:51.529Z,17.50
2017-11-28T20:30:20.345Z,17.50
2017-11-28T20:32:49.267Z,17.50
2017-11-28T20:35:17.110Z,17.50
2017-11-28T20:37:47.429Z,17.50
2017-11-28T20:40:16.041Z,17.50
2017-11-28T20:42:43.951Z,17.50
2017-11-28T20:45:11.880Z,17.50
2017-11-28T20:47:39.795Z,17.50
2017-11-28T20:50:07.725Z,17.50
2017-11-28T20:52:35.605Z,17.50
2017-11-28T20:55:03.488Z,17.50
2017-11-28T20:57:32.569Z,17.50
2017-11-28T21:00:00.668Z,17.50
2017-11-28T21:02:28.902Z,17.50
2017-11-28T21:04:56.906Z,17.50
2017-11-28T21:07:24.838Z,17.50
2017-11-28T21:09:54.251Z,17.50
2017-11-28T21:12:22.399Z,17.50
2017-11-28T21:14:50.364Z,17.50
2017-11-28T21:17:18.243Z,17.50
2017-11-28T21:19:46.200Z,17.40
2017-11-28T21:22:15.332Z,17.40
2017-11-28T21:24:47.266Z,17.50
2017-11-28T21:27:15.285Z,17.50
2017-11-28T21:29:43.915Z,17.50
2017-11-28T21:32:11.876Z,17.50
2017-11-28T21:34:39.747Z,17.50
2017-11-28T21:37:07.751Z,17.50
2017-11-28T21:39:36.196Z,17.40
2017-11-28T21:42:04.188Z,17.40
2017-11-28T21:44:32.173Z,17.40
2017-11-28T21:47:00.086Z,17.40
2017-11-28T21:49:27.950Z,17.40
2017-11-28T21:51:57.315Z,17.40
2017-11-28T21:54:26.059Z,17.40
2017-11-28T21:56:54.060Z,17.30
2017-11-28T21:59:22.810Z,17.30
2017-11-28T22:01:52.870Z,17.30
2017-11-28T22:04:20.776Z,17.30
2017-11-28T22:06:49.407Z,17.30
2017-11-28T22:09:17.822Z,17.30
2017-11-28T22:11:45.762Z,17.20
2017-11-28T22:14:13.643Z,17.20
2017-11-28T22:16:41.519Z,17.30
2017-11-28T22:19:09.402Z,17.30
2017-11-28T22:21:38.040Z,17.20
2017-11-28T22:24:05.898Z,17.20
2017-11-28T22:26:34.351Z,17.20
2017-11-28T22:29:02.413Z,17.20
2017-11-28T22:31:31.428Z,17.20
2017-11-28T22:33:59.383Z,17.20
2017-11-28T22:36:27.745Z,17.20
2017-11-28T22:38:55.709Z,17.20
2017-11-28T22:41:24.101Z,17.20
2017-11-28T22:43:51.922Z,17.20
2017-11-28T22:46:20.873Z,17.20
2017-11-28T22:48:48.761Z,17.10
2017-11-28T22:51:16.681Z,17.20
2017-11-28T22:53:58.606Z,17.10
2017-11-28T22:56:27.287Z,17.10
2017-11-28T22:58:55.225Z,17.10
2017-11-28T23:01:23.942Z,17.10
2017-11-28T23:03:51.825Z,17.10
2017-11-28T23:06:21.634Z,17.00
2017-11-28T23:08:49.550Z,17.00
2017-11-28T23:11:17.415Z,17.00
2017-11-28T23:13:56.978Z,17.00
2017-11-28T23:16:24.915Z,17.10
2017-11-28T23:18:55.624Z,17.00
